Time;durP1;ratioP1;P1;durP2;ratioP2;P2;SDS_P1;SDS_P2;PMS_P1;PMS_P2;Temp;Humidity;BMP_temperature;BMP_pressure;BME280_temperature;BME280_humidity;BME280_pressure;Samples;Min_cycle;Max_cycle;Signal;HPM_P1;HPM_P2
2022/11/15 00:01:17;;;;;;;0.80;0.73;;;8.40;99.90;;;8.48;100.00;100145.22;4966499;28;20257;-81
2022/11/15 00:03:45;;;;;;;0.90;0.73;;;8.40;99.90;;;8.48;100.00;100144.34;4971793;28;20658;-81
2022/11/15 00:06:12;;;;;;;0.75;0.70;;;8.40;99.90;;;8.46;100.00;100138.16;4973366;28;20312;-79
2022/11/15 00:08:39;;;;;;;0.85;0.85;;;8.40;99.90;;;8.47;100.00;100143.47;4974433;28;20260;-80
2022/11/15 00:11:06;;;;;;;0.52;0.52;;;8.40;99.90;;;8.46;100.00;100141.69;4974330;28;20284;-79
2022/11/15 00:13:33;;;;;;;0.50;0.50;;;8.40;99.90;;;8.46;100.00;100141.69;4985315;28;20231;-79
2022/11/15 00:16:02;;;;;;;1.00;0.90;;;8.40;99.90;;;8.47;100.00;100143.47;4967644;28;20255;-79
2022/11/15 00:18:30;;;;;;;1.55;1.27;;;8.40;99.90;;;8.45;100.00;100145.19;4975101;28;20273;-79
2022/11/15 00:21:10;;;;;;;1.45;1.13;;;8.40;99.90;;;8.46;100.00;100146.06;4989279;28;20236;-78
2022/11/15 00:23:37;;;;;;;2.45;1.50;;;8.40;99.90;;;8.46;100.00;100143.44;4972754;28;20713;-78
2022/11/15 00:26:05;;;;;;;1.00;0.90;;;8.40;99.90;;;8.49;100.00;100143.47;4972398;28;20248;-79
2022/11/15 00:28:32;;;;;;;1.67;1.30;;;8.40;99.90;;;8.41;100.00;100143.38;4970675;28;20257;-78
2022/11/15 00:31:05;;;;;;;1.35;1.05;;;8.40;99.90;;;8.42;100.00;100139.00;4965803;28;20324;-78
2022/11/15 00:33:33;;;;;;;1.70;1.25;;;8.40;99.90;;;8.45;100.00;100150.47;4968986;28;20321;-83
2022/11/15 00:36:09;;;;;;;1.55;1.15;;;8.40;99.90;;;8.49;100.00;100149.63;4969006;28;20224;-80
2022/11/15 00:38:38;;;;;;;1.00;0.90;;;8.40;99.90;;;8.48;100.00;100149.63;4971591;28;20249;-81
2022/11/15 00:41:07;;;;;;;1.30;1.08;;;8.40;99.90;;;8.43;100.00;100144.28;4971660;28;20317;-80
2022/11/15 00:43:36;;;;;;;2.58;1.88;;;8.40;99.90;;;8.43;100.00;100138.13;4971748;28;20232;-81
2022/11/15 00:46:03;;;;;;;1.00;0.90;;;;;;;8.43;100.00;100132.84;4968822;28;20276;-81
2022/11/15 00:48:31;;;;;;;1.20;1.00;;;8.40;99.90;;;8.52;100.00;100141.75;4967754;28;20241;-81
2022/11/15 00:50:58;;;;;;;0.80;0.80;;;8.40;99.90;;;8.57;100.00;100141.81;4970634;28;20708;-81
2022/11/15 00:53:26;;;;;;;1.85;1.40;;;8.50;99.90;;;8.63;100.00;100139.25;4971837;28;20236;-81
2022/11/15 00:55:53;;;;;;;1.80;1.27;;;8.60;99.90;;;8.64;100.00;100141.91;4967948;28;20224;-81
2022/11/15 00:58:20;;;;;;;1.77;1.35;;;8.60;99.90;;;8.68;100.00;100142.84;4971511;28;20735;-81
2022/11/15 01:00:47;;;;;;;1.55;1.08;;;8.60;99.90;;;8.65;100.00;100141.06;4970874;28;20261;-80
2022/11/15 01:03:14;;;;;;;1.60;1.20;;;9.40;99.90;;;8.66;100.00;100144.56;4974753;28;20305;-81
2022/11/15 01:05:41;;;;;;;1.23;1.02;;;8.60;99.90;;;8.66;100.00;100145.47;4972900;28;20268;-79
2022/11/15 01:08:15;;;;;;;1.13;1.00;;;8.60;99.90;;;8.68;100.00;100128.78;4973948;28;20259;-80
2022/11/15 01:10:44;;;;;;;1.38;1.10;;;8.60;99.90;;;8.64;100.00;100123.47;4973987;28;20236;-79
2022/11/15 01:13:11;;;;;;;1.20;1.02;;;8.60;99.90;;;8.62;100.00;100125.19;4973143;28;20237;-79
2022/11/15 01:15:41;;;;;;;1.33;1.20;;;8.60;99.90;;;8.56;100.00;100122.50;4975193;28;20237;-82
2022/11/15 01:18:09;;;;;;;1.30;1.20;;;8.50;99.90;;;8.56;100.00;100121.59;4975317;28;20297;-81
2022/11/15 01:20:45;;;;;;;1.55;1.27;;;8.50;99.90;;;8.56;100.00;100117.22;4971930;28;20272;-81
2022/11/15 01:23:12;;;;;;;2.00;1.67;;;8.50;99.90;;;8.61;100.00;100122.53;4964162;28;20256;-81
2022/11/15 01:25:39;;;;;;;1.45;1.27;;;8.60;99.90;;;8.61;100.00;100123.44;4931508;28;20277;-84
2022/11/15 01:28:06;;;;;;;1.50;1.27;;;8.60;99.90;;;8.64;100.00;100131.38;4928936;29;20786;-81
2022/11/15 01:30:33;;;;;;;1.45;1.15;;;8.60;99.90;;;8.68;100.00;100123.50;4933952;28;20313;-80
2022/11/15 01:33:00;;;;;;;1.77;1.42;;;8.60;99.90;;;8.70;100.00;100124.41;4931653;28;20238;-79
2022/11/15 01:35:27;;;;;;;1.20;0.98;;;8.70;99.90;;;8.74;100.00;100118.28;4933887;28;20259;-79
2022/11/15 01:37:54;;;;;;;2.05;1.50;;;8.70;99.90;;;8.72;100.00;100112.13;4929941;28;20310;-79
2022/11/15 01:40:21;;;;;;;2.38;1.75;;;8.70;99.90;;;8.72;100.00;100106.84;4933273;28;20226;-79
2022/11/15 01:42:48;;;;;;;1.50;1.35;;;8.70;99.90;;;8.68;100.00;100105.94;4932335;28;20226;-79
2022/11/15 01:45:16;;;;;;;1.30;1.20;;;8.70;99.90;;;8.61;100.00;100094.44;4930367;28;20377;-79
2022/11/15 01:47:49;;;;;;;1.60;1.30;;;8.60;99.90;;;8.64;100.00;100098.84;4932851;28;20246;-79
2022/11/15 01:50:25;;;;;;;2.05;1.85;;;8.60;99.90;;;8.61;100.00;100093.53;4927833;28;20263;-79
2022/11/15 01:52:52;;;;;;;2.00;1.67;;;8.60;99.90;;;8.62;100.00;100085.66;4925100;28;20269;-79
2022/11/15 01:55:25;;;;;;;1.30;1.10;;;9.30;99.90;;;8.63;100.00;100090.06;4925213;28;20244;-81
2022/11/15 01:57:58;;;;;;;1.60;1.27;;;8.60;99.90;;;8.62;100.00;100084.78;4916120;29;20222;-79
2022/11/15 02:00:25;;;;;;;1.08;0.98;;;8.60;99.90;;;8.60;100.00;100089.16;4927537;28;20671;-79
2022/11/15 02:02:52;;;;;;;1.88;1.52;;;8.60;99.90;;;8.59;100.00;100084.75;4928178;28;20317;-79
2022/11/15 02:05:19;;;;;;;2.58;2.20;;;8.60;99.90;;;8.57;100.00;100078.56;4926841;28;20261;-79
2022/11/15 02:07:48;;;;;;;1.20;1.10;;;8.50;99.90;;;8.53;100.00;100079.41;4927018;29;20234;-79
2022/11/15 02:10:22;;;;;;;1.85;1.30;;;8.50;99.90;;;8.57;100.00;100076.81;4913956;28;20313;-79
2022/11/15 02:12:50;;;;;;;1.45;1.20;;;8.50;99.90;;;8.55;100.00;100072.41;4928003;28;20321;-79
2022/11/15 02:15:17;;;;;;;1.85;1.42;;;8.50;99.90;;;8.59;100.00;100068.94;4926136;28;20230;-79
2022/11/15 02:18:16;;;;;;;1.23;1.13;;;8.50;99.90;;;8.61;100.00;100064.56;4925655;28;20355;-79
2022/11/15 02:20:58;;;;;;;2.67;1.88;;;8.60;99.90;;;8.64;100.00;100064.59;4922438;28;20227;-79
2022/11/15 02:24:25;;;;;;;2.10;1.58;;;8.60;99.90;;;8.70;100.00;100058.50;4921286;28;20233;-80
2022/11/15 02:27:28;;;;;;;2.72;1.83;;;8.60;99.90;;;8.72;100.00;100062.03;4918444;28;20350;-80
2022/11/15 02:30:38;;;;;;;1.92;1.40;;;8.70;99.90;;;8.71;100.00;100047.97;4930591;28;20249;-79
2022/11/15 02:33:39;;;;;;;1.42;1.20;;;8.60;99.90;;;8.71;100.00;100047.09;4913321;29;20254;-79
2022/11/15 02:36:28;;;;;;;1.30;1.10;;;8.70;99.90;;;8.75;100.00;100049.78;4930050;29;20232;-81
2022/11/15 02:39:13;;;;;;;2.20;1.60;;;8.70;99.90;;;8.76;100.00;100055.94;4924242;28;20298;-81
2022/11/15 02:45:05;;;;;;;1.33;1.13;;;8.70;99.90;;;8.76;100.00;100045.38;4923583;29;20321;-80
2022/11/15 02:47:41;;;;;;;1.17;1.00;;;8.70;99.90;;;8.77;100.00;100047.16;4925244;29;20286;-81
2022/11/15 02:50:12;;;;;;;1.52;1.20;;;8.70;99.90;;;8.74;100.00;100039.22;4926197;29;20250;-81
2022/11/15 02:52:39;;;;;;;0.80;0.80;;;8.70;99.90;;;8.70;100.00;100027.75;4922883;28;20231;-81
2022/11/15 02:55:30;;;;;;;1.52;1.20;;;8.70;99.90;;;8.69;100.00;100028.63;4927001;28;20305;-80
2022/11/15 02:58:47;;;;;;;2.05;1.33;;;8.60;99.90;;;8.69;100.00;100025.97;4923824;28;20263;-80
2022/11/15 03:01:42;;;;;;;1.58;1.25;;;8.60;99.90;;;8.70;100.00;100027.75;4926719;28;20274;-80
2022/11/15 03:04:17;;;;;;;1.70;1.40;;;8.60;99.90;;;8.70;100.00;100011.03;4927104;28;20318;-82
2022/11/15 03:06:46;;;;;;;1.73;1.33;;;8.60;99.90;;;8.67;100.00;100019.81;4929500;28;20226;-79
2022/11/15 03:09:34;;;;;;;2.22;1.58;;;8.60;99.90;;;8.62;100.00;100011.84;4943275;28;20242;-79
2022/11/15 03:12:34;;;;;;;2.10;1.58;;;8.60;99.90;;;8.59;100.00;100014.47;4929111;28;20242;-80
2022/11/15 03:15:10;;;;;;;2.63;2.03;;;8.50;99.90;;;8.58;100.00;100014.44;4919547;28;20246;-79
2022/11/15 03:17:48;;;;;;;2.20;1.58;;;8.50;99.90;;;8.57;100.00;100018.84;4931246;29;20238;-78
2022/11/15 03:20:18;;;;;;;2.25;1.52;;;8.50;99.90;;;8.56;100.00;100021.44;4928576;28;20325;-78
2022/11/15 03:22:47;;;;;;;2.88;2.35;;;8.50;99.90;;;8.55;100.00;100025.84;4931152;28;20226;-80
2022/11/15 03:25:22;;;;;;;3.08;1.95;;;8.50;99.90;;;8.54;100.00;100029.34;4929987;28;20235;-80
2022/11/15 03:27:55;;;;;;;2.13;1.65;;;8.50;99.90;;;8.54;100.00;100029.34;4909636;28;20337;-79
2022/11/15 03:30:22;;;;;;;2.35;1.63;;;8.50;99.90;;;8.54;100.00;100031.09;4928667;28;20254;-78
2022/11/15 03:32:58;;;;;;;2.25;1.60;;;8.50;99.90;;;8.55;100.00;100032.88;4930996;28;20235;-79
2022/11/15 03:35:30;;;;;;;2.92;1.67;;;8.50;99.90;;;8.56;100.00;100042.53;4928081;28;20234;-79
2022/11/15 03:38:22;;;;;;;3.70;2.40;;;8.50;99.90;;;8.57;100.00;100039.91;4929726;28;20281;-79
2022/11/15 03:41:04;;;;;;;2.92;1.77;;;8.50;99.90;;;8.60;100.00;100044.34;4941940;28;20230;-79
2022/11/15 03:43:55;;;;;;;3.10;2.17;;;8.50;99.90;;;8.62;100.00;100053.16;4927908;28;20317;-78
2022/11/15 03:46:34;;;;;;;3.28;1.92;;;8.60;99.90;;;8.62;100.00;100042.59;4927223;28;20238;-78
2022/11/15 03:49:10;;;;;;;4.35;2.70;;;8.60;99.90;;;8.63;100.00;100042.63;4925418;28;20238;-79
2022/11/15 03:51:37;;;;;;;2.97;1.92;;;8.60;99.90;;;8.63;100.00;100042.63;4920580;29;20738;-79
2022/11/15 03:54:05;;;;;;;3.42;2.13;;;8.60;99.90;;;8.63;100.00;100049.63;4927199;29;20234;-79
2022/11/15 03:56:32;;;;;;;3.75;2.20;;;8.60;99.90;;;8.65;100.00;100048.78;4925049;28;20230;-79
2022/11/15 03:58:59;;;;;;;3.28;2.05;;;8.60;99.90;;;8.64;100.00;100041.75;4926882;28;20270;-79
2022/11/15 04:01:26;;;;;;;3.25;2.00;;;8.60;99.90;;;8.65;100.00;100043.50;4927521;28;20277;-79
2022/11/15 04:03:53;;;;;;;2.53;1.50;;;8.60;99.90;;;8.66;100.00;100047.91;4928698;28;20233;-79
2022/11/15 04:06:20;;;;;;;3.15;1.70;;;8.70;99.90;;;8.66;100.00;100053.19;4932895;28;20251;-79
2022/11/15 04:08:47;;;;;;;2.55;1.42;;;8.60;99.90;;;8.68;100.00;100050.56;4937813;28;20257;-79
2022/11/15 04:11:14;;;;;;;2.95;1.77;;;8.60;99.90;;;8.69;100.00;100054.09;4936672;28;20258;-79
2022/11/15 04:13:41;;;;;;;1.80;1.15;;;8.60;99.90;;;8.68;100.00;100047.06;4936362;28;20266;-81
2022/11/15 04:16:08;;;;;;;2.47;1.30;;;8.70;99.90;;;8.68;100.00;100057.59;4933671;28;20317;-82
2022/11/15 04:18:35;;;;;;;1.92;1.20;;;8.60;99.90;;;8.67;100.00;100056.72;4935721;28;20303;-81
2022/11/15 04:26:22;;;;;;;2.45;1.38;;;8.70;99.90;;;8.69;100.00;100054.09;4932658;28;21376;-81
2022/11/15 04:31:35;;;;;;;2.78;1.48;;;8.70;99.90;;;8.71;100.00;100042.69;4935884;28;20699;-81
2022/11/15 04:34:02;;;;;;;2.72;1.60;;;8.70;99.90;;;8.72;100.00;100041.81;4944014;29;20249;-82
2022/11/15 04:39:14;;;;;;;3.53;1.80;;;8.70;99.90;;;8.71;100.00;100031.28;4936063;28;20226;-80
2022/11/15 04:41:41;;;;;;;3.10;1.60;;;8.70;99.90;;;8.72;100.00;100033.03;4936216;28;20321;-79
2022/11/15 04:44:09;;;;;;;2.17;1.30;;;8.70;99.90;;;8.70;100.00;100024.22;4934096;29;20318;-80
2022/11/15 04:46:36;;;;;;;3.88;1.92;;;8.70;99.90;;;8.72;100.00;100033.03;4927246;28;20235;-79
2022/11/15 04:49:03;;;;;;;2.65;1.38;;;8.60;99.90;;;8.70;100.00;100033.03;4935918;28;20238;-80
2022/11/15 04:51:30;;;;;;;3.72;1.90;;;8.70;99.90;;;8.71;100.00;100037.44;4927056;28;20258;-79
2022/11/15 04:53:57;;;;;;;2.78;1.40;;;8.70;99.90;;;8.70;100.00;100040.94;4937701;28;20725;-79
2022/11/15 04:56:24;;;;;;;3.25;1.75;;;8.70;99.90;;;8.70;100.00;100030.38;4935298;28;20269;-81
2022/11/15 04:58:52;;;;;;;4.50;1.70;;;8.60;99.90;;;8.70;100.00;100029.50;4933791;28;20243;-82
2022/11/15 05:01:19;;;;;;;4.28;1.98;;;8.60;99.90;;;8.68;100.00;100032.13;4933364;28;20269;-81
2022/11/15 05:06:31;;;;;;;4.32;2.20;;;8.70;99.90;;;8.67;100.00;100033.00;4929193;28;20254;-81
2022/11/15 05:08:58;;;;;;;2.08;1.23;;;8.60;99.90;;;8.68;100.00;100021.56;4933612;28;20230;-79
2022/11/15 05:11:27;;;;;;;4.65;2.33;;;8.60;99.90;;;8.68;100.00;100016.31;4931179;28;20759;-79
2022/11/15 05:13:54;;;;;;;2.58;1.48;;;8.60;99.90;;;8.68;100.00;100010.16;4933627;28;20245;-79
2022/11/15 05:16:21;;;;;;;3.13;1.42;;;8.60;99.90;;;8.68;100.00;100012.78;4933968;28;20226;-80
2022/11/15 05:18:53;;;;;;;2.83;1.50;;;8.60;99.90;;;8.62;100.00;100003.06;4927377;28;20230;-79
2022/11/15 05:21:21;;;;;;;2.67;1.40;;;8.60;99.90;;;8.59;100.00;100010.94;4931137;28;20281;-80
2022/11/15 05:23:48;;;;;;;3.15;1.70;;;8.50;99.90;;;8.57;100.00;100004.78;4937702;28;20238;-80
2022/11/15 05:26:17;;;;;;;5.15;2.35;;;8.50;99.90;;;8.54;100.00;100008.25;4930027;28;20226;-79
2022/11/15 05:28:44;;;;;;;3.88;2.00;;;8.50;99.90;;;8.56;100.00;100011.78;4929754;28;20395;-79
2022/11/15 05:31:15;;;;;;;2.20;1.27;;;8.50;99.90;;;8.60;100.00;100013.59;4935600;29;20268;-80
2022/11/15 05:33:44;;;;;;;2.20;1.15;;;8.50;99.90;;;8.59;100.00;100009.19;4931774;28;20226;-79
2022/11/15 05:36:37;;;;;;;2.60;1.35;;;8.50;99.90;;;8.59;100.00;100008.31;4932456;29;20249;-79
2022/11/15 05:39:06;;;;;;;3.78;2.03;;;8.50;99.90;;;8.58;100.00;100007.41;4936521;28;20237;-79
2022/11/15 05:41:55;;;;;;;3.45;1.77;;;8.50;99.90;;;8.57;100.00;100000.38;4931697;29;20242;-78
2022/11/15 05:44:25;;;;;;;5.45;2.53;;;8.50;99.90;;;8.57;100.00;99995.13;4946782;28;20749;-78
2022/11/15 05:46:55;;;;;;;4.85;2.35;;;8.50;99.90;;;8.52;100.00;99988.91;4926950;28;20226;-78
2022/11/15 05:49:27;;;;;;;3.38;1.75;;;8.50;99.90;;;8.48;100.00;99975.69;4931865;29;20250;-78
2022/11/15 05:51:54;;;;;;;2.85;1.50;;;8.40;99.90;;;8.42;100.00;99971.25;4926553;29;20258;-78
2022/11/15 05:54:23;;;;;;;3.03;1.70;;;8.40;99.90;;;8.32;100.00;99966.72;4926131;28;20257;-78
2022/11/15 05:56:50;;;;;;;5.25;2.50;;;8.30;99.90;;;8.26;100.00;99958.75;4928291;28;20237;-78
2022/11/15 05:59:17;;;;;;;3.08;1.60;;;8.30;99.90;;;8.25;100.00;99955.22;4932630;28;20269;-78
2022/11/15 06:01:45;;;;;;;3.10;1.60;;;8.20;99.90;;;8.22;100.00;99956.94;4930768;28;20310;-78
2022/11/15 06:04:12;;;;;;;4.10;2.05;;;8.20;99.90;;;8.22;100.00;99955.19;4931773;28;20258;-78
2022/11/15 06:06:39;;;;;;;4.88;2.50;;;8.20;99.90;;;8.19;100.00;99956.91;4924921;28;20290;-80
2022/11/15 06:09:06;;;;;;;3.20;1.75;;;8.20;99.90;;;8.13;100.00;99954.22;4928789;28;20265;-81
2022/11/15 06:11:33;;;;;;;4.07;2.03;;;8.10;99.90;;;8.11;100.00;99962.09;4930227;28;20638;-81
2022/11/15 06:14:00;;;;;;;5.85;2.95;;;8.10;99.90;;;8.11;100.00;99964.72;4928825;28;20297;-80
2022/11/15 06:16:27;;;;;;;4.70;2.42;;;8.10;99.90;;;8.10;100.00;99962.06;4925087;28;20246;-80
2022/11/15 06:18:54;;;;;;;4.97;2.45;;;8.10;99.90;;;8.08;100.00;99963.81;4930998;28;20286;-78
2022/11/15 06:21:22;;;;;;;3.05;1.58;;;8.10;99.90;;;7.97;100.00;99961.94;4927417;28;20294;-80
2022/11/15 06:23:50;;;;;;;3.10;1.50;;;8.00;99.90;;;7.98;100.00;99960.19;4929014;28;20230;-81
2022/11/15 06:26:17;;;;;;;3.20;1.55;;;7.90;99.90;;;8.05;100.00;99966.41;4932779;28;20325;-81
2022/11/15 06:28:44;;;;;;;2.40;1.30;;;8.00;99.90;;;8.06;100.00;99965.53;4931518;28;20273;-80
2022/11/15 06:31:11;;;;;;;2.90;1.52;;;8.00;99.90;;;8.03;100.00;99969.91;4932179;28;20230;-80
2022/11/15 06:33:39;;;;;;;2.53;1.40;;;8.00;99.90;;;8.07;100.00;99962.03;4934620;29;20250;-80
2022/11/15 06:36:13;;;;;;;2.47;1.40;;;8.00;99.90;;;8.07;100.00;99964.69;4947185;28;20261;-81
2022/11/15 06:38:47;;;;;;;2.75;1.45;;;8.00;99.90;;;8.08;100.00;99963.81;4931710;28;20256;-80
2022/11/15 06:41:14;;;;;;;2.40;1.27;;;8.00;99.90;;;8.02;100.00;99960.25;4935425;28;20257;-81
2022/11/15 06:43:42;;;;;;;3.08;1.60;;;8.00;99.90;;;8.01;100.00;99950.56;4935417;28;20257;-80
2022/11/15 06:46:09;;;;;;;3.38;1.67;;;7.90;99.90;;;7.98;100.00;99952.28;4922329;28;20318;-80
2022/11/15 06:48:37;;;;;;;2.35;1.30;;;7.90;99.90;;;7.89;100.00;99946.91;4916505;28;20242;-80
2022/11/15 06:51:05;;;;;;;2.20;1.30;;;7.80;99.90;;;7.72;100.00;99942.28;4916386;28;20239;-81
2022/11/15 06:53:32;;;;;;;3.05;1.65;;;7.70;99.90;;;7.66;100.00;99944.84;4917597;28;20235;-80
2022/11/15 06:56:05;;;;;;;2.55;1.55;;;7.70;99.90;;;7.70;100.00;99957.19;4932111;28;20265;-80
2022/11/15 06:58:33;;;;;;;2.67;1.40;;;7.60;99.90;;;7.85;100.00;99963.53;4938009;28;20230;-81
2022/11/15 07:01:06;;;;;;;2.38;1.30;;;7.80;99.90;;;7.88;100.00;99968.84;4938513;28;20277;-80
2022/11/15 07:03:39;;;;;;;2.05;1.20;;;7.80;99.90;;;7.91;100.00;99972.41;4939306;28;20230;-81
2022/11/15 07:06:08;;;;;;;2.80;1.50;;;7.80;99.90;;;7.94;100.00;99984.72;4937950;28;20289;-81
2022/11/15 07:08:36;;;;;;;2.30;1.35;;;7.90;99.90;;;7.96;100.00;99983.88;4938685;28;20243;-81
2022/11/15 07:11:07;;;;;;;2.72;1.50;;;7.90;99.90;;;8.03;100.00;99987.47;4938426;28;20296;-81
2022/11/15 07:13:36;;;;;;;2.33;1.23;;;8.00;99.90;;;8.07;100.00;99993.66;4938395;28;20230;-81
2022/11/15 07:16:07;;;;;;;2.33;1.23;;;8.00;99.90;;;8.09;100.00;99989.28;4937934;28;20238;-81
2022/11/15 07:18:39;;;;;;;2.00;1.17;;;8.00;99.90;;;8.11;100.00;99985.78;4938321;28;20257;-80
2022/11/15 07:21:09;;;;;;;2.45;1.38;;;8.00;99.90;;;8.14;100.00;99987.59;4938824;28;20610;-81
2022/11/15 07:23:38;;;;;;;2.10;1.20;;;8.10;99.90;;;8.21;100.00;99998.19;4937602;28;20268;-81
2022/11/15 07:26:06;;;;;;;2.30;1.50;;;8.10;99.90;;;8.27;100.00;100006.19;4937516;28;20230;-81
2022/11/15 07:28:34;;;;;;;2.00;1.27;;;8.20;99.90;;;8.30;100.00;100003.56;4935522;28;20242;-81
2022/11/15 07:31:08;;;;;;;3.53;1.92;;;8.20;99.90;;;8.37;100.00;100006.31;4933051;28;20234;-80
2022/11/15 07:33:35;;;;;;;3.05;1.50;;;8.30;99.90;;;8.39;100.00;100007.22;4931418;29;20317;-80
2022/11/15 07:36:05;;;;;;;2.42;1.27;;;8.30;99.90;;;8.44;100.00;100010.78;4934184;28;20301;-81
2022/11/15 07:38:33;;;;;;;2.33;1.30;;;8.40;99.90;;;8.51;100.00;100023.16;4933094;28;20305;-81
2022/11/15 07:41:08;;;;;;;3.40;1.45;;;8.40;99.90;;;8.53;100.00;100024.94;4935011;28;20234;-81
2022/11/15 07:43:35;;;;;;;2.78;1.58;;;8.50;99.90;;;8.54;100.00;100017.91;4937962;28;20242;-80
2022/11/15 07:46:09;;;;;;;1.77;1.17;;;8.50;99.90;;;8.54;100.00;100021.44;4927976;28;20282;-81
2022/11/15 07:48:39;;;;;;;2.28;1.35;;;8.50;99.90;;;8.53;100.00;100019.66;4934878;28;20261;-81
2022/11/15 07:51:16;;;;;;;1.50;0.98;;;8.50;99.90;;;8.50;100.00;100014.38;4928210;28;20229;-80
2022/11/15 07:53:43;;;;;;;2.00;1.20;;;8.50;99.90;;;8.53;100.00;100013.50;4936703;28;20258;-81
2022/11/15 07:56:11;;;;;;;2.47;1.60;;;8.50;99.90;;;8.54;100.00;100012.66;4932265;28;20239;-80
2022/11/15 07:58:39;;;;;;;2.08;1.30;;;8.40;99.90;;;8.57;100.00;100020.59;4934252;29;20242;-81
2022/11/15 08:01:09;;;;;;;2.28;1.40;;;8.50;99.90;;;8.55;100.00;100014.41;4935914;29;20253;-81
2022/11/15 08:03:37;;;;;;;1.85;1.10;;;8.50;99.90;;;8.61;100.00;100022.38;4926274;29;20265;-80
2022/11/15 08:06:05;;;;;;;2.35;1.33;;;8.50;99.90;;;8.58;100.00;100014.44;4937409;28;20235;-80
2022/11/15 08:08:32;;;;;;;1.85;1.27;;;8.50;99.90;;;8.58;100.00;100015.31;4935294;28;20290;-80
2022/11/15 08:10:59;;;;;;;1.90;1.20;;;8.50;99.90;;;8.64;100.00;100019.78;4930621;28;20255;-80
2022/11/15 08:13:27;;;;;;;2.63;1.52;;;8.60;99.90;;;8.65;100.00;100013.63;4924217;28;20230;-80
2022/11/15 08:16:02;;;;;;;1.95;1.10;;;8.60;99.90;;;8.69;100.00;100023.34;4918234;28;20231;-80
2022/11/15 08:18:29;;;;;;;1.88;1.15;;;8.60;99.90;;;8.70;100.00;100022.47;4932403;28;20241;-80
2022/11/15 08:21:01;;;;;;;2.58;1.38;;;8.70;99.90;;;8.70;100.00;100008.41;4930399;28;20314;-80
2022/11/15 08:23:28;;;;;;;2.38;1.42;;;8.70;99.90;;;8.72;100.00;100009.31;4931622;28;20238;-81
2022/11/15 08:26:04;;;;;;;1.80;1.10;;;8.70;99.90;;;8.76;100.00;100009.34;4932823;28;20257;-80
2022/11/15 08:28:32;;;;;;;2.35;1.25;;;8.70;99.90;;;8.78;100.00;100004.09;4935573;28;20238;-81
2022/11/15 08:30:59;;;;;;;2.05;1.10;;;8.70;99.90;;;8.80;100.00;100007.63;4934004;28;20261;-80
2022/11/15 08:33:27;;;;;;;2.70;1.35;;;8.70;99.90;;;8.89;100.00;100005.97;4935007;28;20265;-81
2022/11/15 08:35:59;;;;;;;2.42;1.40;;;8.80;99.90;;;8.89;100.00;100010.34;4936145;28;20293;-81
2022/11/15 08:38:28;;;;;;;3.22;1.75;;;8.80;99.90;;;8.93;100.00;100013.03;4925229;28;20234;-80
2022/11/15 08:41:04;;;;;;;2.72;1.30;;;8.90;99.90;;;8.99;100.00;100023.63;4932210;28;20238;-80
2022/11/15 08:43:31;;;;;;;2.40;1.20;;;8.90;99.90;;;9.06;100.00;100015.78;4936846;28;20261;-80
2022/11/15 08:45:59;;;;;;;1.85;1.05;;;9.00;99.90;;;9.11;100.00;100022.88;4936428;28;20238;-80
2022/11/15 08:48:26;;;;;;;1.77;1.13;;;9.00;99.90;;;9.15;100.00;100023.78;4951528;28;20325;-80
2022/11/15 08:50:56;;;;;;;1.80;1.00;;;9.10;99.90;;;9.22;100.00;100022.97;4937498;28;20673;-80
2022/11/15 08:53:24;;;;;;;2.83;1.52;;;9.10;99.90;;;9.22;100.00;100021.22;4934032;28;20305;-79
2022/11/15 08:55:51;;;;;;;2.03;1.45;;;9.10;99.90;;;9.25;100.00;100015.97;4948376;28;20226;-80
2022/11/15 08:58:18;;;;;;;2.05;1.13;;;9.20;99.90;;;9.30;100.00;100022.16;4932561;28;20285;-80
2022/11/15 09:00:45;;;;;;;2.75;1.40;;;9.20;99.90;;;9.38;100.00;100026.59;4925849;28;20230;-80
2022/11/15 09:03:12;;;;;;;2.80;1.65;;;9.30;99.90;;;9.39;100.00;100018.69;4931601;28;20277;-79
2022/11/15 09:05:39;;;;;;;2.00;1.13;;;9.30;99.90;;;9.44;100.00;100016.09;4934037;29;20273;-80
2022/11/15 09:08:06;;;;;;;1.67;1.05;;;9.40;99.90;;;9.48;100.00;100018.75;4932408;28;20299;-80
2022/11/15 09:10:53;;;;;;;1.88;1.13;;;9.40;99.90;;;9.49;100.00;100019.66;4913717;29;20243;-81
2022/11/15 09:13:20;;;;;;;2.45;1.25;;;9.40;99.90;;;9.54;100.00;100021.44;4931882;28;20325;-81
2022/11/15 09:15:47;;;;;;;2.47;1.30;;;9.50;99.90;;;9.60;100.00;100024.13;4929354;28;20313;-80
2022/11/15 09:18:14;;;;;;;2.17;1.15;;;9.50;99.90;;;9.63;100.00;100031.19;4932695;28;20286;-81
2022/11/15 09:20:41;;;;;;;1.63;1.08;;;9.50;99.90;;;9.65;100.00;100020.63;4933764;28;20258;-80
2022/11/15 09:23:08;;;;;;;3.22;1.73;;;9.60;99.90;;;9.64;100.00;100025.03;4929599;28;20746;-80
2022/11/15 09:25:35;;;;;;;3.58;1.85;;;9.60;99.90;;;9.70;100.00;100029.47;4930174;28;20301;-80
2022/11/15 09:28:07;;;;;;;3.40;1.88;;;9.60;99.90;;;9.73;100.00;100021.56;4924128;28;20245;-80
2022/11/15 09:30:34;;;;;;;3.17;1.77;;;9.60;99.90;;;9.78;100.00;100026.00;4932074;28;20261;-80
2022/11/15 09:33:12;;;;;;;2.20;1.30;;;10.10;99.90;;;9.87;100.00;100026.03;4928393;28;20285;-80
2022/11/15 09:35:40;;;;;;;3.15;1.65;;;9.80;99.90;;;9.88;100.00;100026.91;4928313;28;20230;-80
2022/11/15 09:38:08;;;;;;;3.03;1.95;;;9.80;99.90;;;9.87;100.00;100022.50;4930804;28;20293;-80
2022/11/15 09:40:37;;;;;;;3.88;1.98;;;9.80;99.90;;;9.92;100.00;100023.41;4928855;28;20679;-79
2022/11/15 09:43:27;;;;;;;1.67;1.02;;;9.80;99.90;;;9.98;100.00;100031.38;4927335;28;20302;-79
2022/11/15 09:46:00;;;;;;;4.07;2.08;;;9.90;99.90;;;10.05;100.00;100030.53;4923326;28;20234;-79
2022/11/15 09:48:59;;;;;;;2.63;1.38;;;10.00;99.90;;;10.03;100.00;100020.81;4926321;28;20281;-81
2022/11/15 09:51:33;;;;;;;13.57;6.70;;;10.00;99.90;;;10.09;100.00;100026.13;4913133;28;20234;-80
2022/11/15 09:54:31;;;;;;;4.70;2.58;;;10.00;99.90;;;10.12;100.00;100023.50;4921100;28;20245;-80
2022/11/15 09:57:41;;;;;;;3.85;1.98;;;10.00;99.90;;;10.12;100.00;100018.22;4929877;28;20601;-81
2022/11/15 10:00:42;;;;;;;2.10;1.10;;;10.00;99.90;;;10.18;100.00;100024.41;4927533;28;20309;-81
2022/11/15 10:03:28;;;;;;;4.15;1.58;;;10.10;99.90;;;10.29;100.00;100031.53;4928063;29;20285;-81
2022/11/15 10:06:02;;;;;;;11.05;3.67;;;10.20;99.90;;;10.24;100.00;100013.03;4924209;28;20293;-81
2022/11/15 10:08:52;;;;;;;4.30;1.65;;;10.20;99.90;;;10.29;100.00;100008.63;4923015;28;20262;-81
2022/11/15 10:11:25;;;;;;;5.05;2.10;;;10.20;99.90;;;10.27;100.00;100000.69;4915103;28;20286;-82
2022/11/15 10:14:21;;;;;;;2.38;1.25;;;10.20;99.90;;;10.37;100.00;100006.91;4929983;28;20598;-82
2022/11/15 10:17:15;;;;;;;4.60;2.08;;;10.30;99.90;;;10.37;100.00;99996.31;4928057;29;20657;-81
2022/11/15 10:20:18;;;;;;;3.67;1.85;;;10.30;99.90;;;10.33;100.00;99988.38;4928567;28;20297;-80
2022/11/15 10:23:01;;;;;;;3.67;1.52;;;10.30;99.90;;;10.42;100.00;99999.91;4878187;28;20229;-80
2022/11/15 10:25:35;;;;;;;2.30;1.13;;;10.30;99.90;;;10.45;100.00;99994.63;4929731;28;20253;-81
2022/11/15 10:28:17;;;;;;;2.75;1.67;;;10.40;99.90;;;10.49;100.00;99985.81;4921854;28;20244;-81
2022/11/15 10:30:51;;;;;;;5.97;2.22;;;10.50;99.90;;;10.56;100.00;99979.66;4931390;28;20289;-81
2022/11/15 10:33:33;;;;;;;5.47;2.38;;;10.50;99.90;;;10.57;100.00;99978.78;4927284;28;20234;-81
2022/11/15 10:36:12;;;;;;;3.92;1.60;;;10.50;99.90;;;10.68;100.00;99970.88;4931585;28;20604;-81
2022/11/15 10:38:59;;;;;;;2.58;1.30;;;10.60;99.90;;;10.75;100.00;99964.69;4930844;28;20256;-80
2022/11/15 10:41:27;;;;;;;4.68;1.88;;;10.60;99.90;;;10.77;100.00;99965.59;4929502;28;20285;-81
2022/11/15 10:44:06;;;;;;;9.77;3.35;;;10.80;99.90;;;10.88;100.00;99962.94;4929820;28;20230;-81
2022/11/15 10:46:36;;;;;;;3.13;1.58;;;10.60;99.90;;;10.94;100.00;99962.94;4929251;28;20284;-81
2022/11/15 10:49:28;;;;;;;5.75;2.55;;;10.90;99.90;;;11.01;100.00;99953.25;4930071;28;20245;-81
2022/11/15 10:52:19;;;;;;;4.10;1.83;;;10.90;99.90;;;11.06;100.00;99948.81;4930507;28;20245;-80
2022/11/15 10:54:53;;;;;;;3.75;2.38;;;10.90;99.90;;;11.16;100.00;99948.81;4928819;29;20226;-81
2022/11/15 10:57:29;;;;;;;9.73;4.32;;;11.00;99.90;;;11.12;100.00;99928.53;4938913;28;20238;-80
2022/11/15 11:00:02;;;;;;;6.45;2.30;;;11.10;99.90;;;11.18;100.00;99922.34;4929218;28;20695;-81